Chester, VA (23831)

4:01 AM EST on January 17, 2018 (GMT -0500)
Chester Heights @ Boyd Rd. | | Change Station
Active Advisory: Winter Weather Advisory

Elev 175 ft 37.36 °N, 77.43 °W | Updated 1 second ago

Overcast
Overcast
33.4 °F
Feels Like 33 °F
N
0.0
Wind Variable Wind from ESE

Today
High -- | Low -- °F
--% Chance of Precip.
Yesterday
High -- | Low -- °F
Precip. -- in
Pressure 30.32 in
Visibility 10.0 miles
Clouds Overcast 7000 ft
Windchill 33 °F
Dew Point 28 °F
Humidity 81%
Rainfall 0.00 in
Snow Depth Not available.
7:22 AM 5:17 PM
New Moon, 0% visible
METAR KRIC 170854Z 01006KT 10SM OVC070 02/M03 A3030 RMK AO2 SLP265 T00171028 53002
Pressure 30.32 in
Visibility 10.0 miles
Clouds Overcast 7000 ft
Windchill 33 °F
Dew Point 28 °F
Humidity 81%
Rainfall 0.00 in
Snow Depth Not available.
7:22 AM 5:17 PM
New Moon, 0% visible
METAR KRIC 170854Z 01006KT 10SM OVC070 02/M03 A3030 RMK AO2 SLP265 T00171028 53002

Get Your Daily Forecast Email!

Thanks for signing up!

Be on the lookout for a verification email in your inbox.

You'll start receiving severe weather alerts in your inbox..

×

10-Day Weather Forecast

Almanac

Astronomy

Jan. 17, 2018 Rise Set
Actual Time
Civil Twilight
Nautical Twilight
Astronomical Twilight
Moon
Length of Visible Light
Length of Day
Tomorrow will be .
, % of the Moon is Illuminated

Today's Extremes

State Highs State Lows

Community

WunderPhotos

Category 6

Welcome to Category 6. This is the collective home for Weather Underground's featured writeups by Dr. Jeff Masters (right), Bob Henson (left), Chris Burt, and other regular contributors.

Nearby

Air Quality

  Air Quality AQ Index Pollutant
Not available.

Snow Depth

Station Depth Elevation

Earthquake Activity

City Distance Mag. Time & Date
Minimum magnitude displayed is 2.5.

Coastal Water Temperatures

Place Temperature

Stations

Nearby Weather Stations

Station Location Temp. Windchill Dew Point Humidity Wind Precip. Elev Updated Type
                   

Watches & Warnings

Winter Weather Advisory
Issued: 3:51 AM EST Jan. 17, 2018 – National Weather Service

... Winter Weather Advisory remains in effect until 6 PM EST this
evening...

* what... snow developing. Plan on slippery Road conditions,
including during the morning commute. Snow accumulation of 1 to
3 inches are expected.

* Where... portions of central and south central Virginia.

* When... until 6 PM EST this evening.

* Additional details... be prepared for reduced visibilities at
times.

Precautionary/preparedness actions...

A Winter Weather Advisory for snow means periods of snow will
cause primarily travel difficulties. Be prepared for snow covered
roads and limited visibilities, and use caution while driving.
For the latest Road conditions in Virginia or Maryland, please
call 5 1 1.